Terminal Aerodrome Forecast
Issued by NWS

Home | Current Version | Previous Version | Graphics & Text | Print | Product List | Glossary On
Versions: 1 2 3 4 5 6 7 8 9 10 11 12 13 14 15 16 17 18 19 20 21 22 23 24 25 26 27 28 29 30 31 32 33 34 35 36 37
000
FTUS43 KLOT 120500
TAFORD
TAF
KORD 120531Z 1206/1312 35010KT P6SM VCSH SCT025 BKN035
      TEMPO 1206/1209 BKN025
     FM121400 04011KT P6SM VCSH SCT012 OVC020
     FM130000 34011KT 6SM -RA SCT007 OVC012
     FM131000 33010KT P6SM SCT012 BKN035=

USA.gov is the U.S. government's official web portal to all federal, state and local government web resources and services.